createdAt,value
2019-04-27T00:00:47.885Z,62.10
2019-04-27T00:01:53.876Z,62.90
2019-04-27T00:03:06.133Z,62.00
2019-04-27T00:04:25.365Z,62.30
2019-04-27T00:05:32.259Z,62.50
2019-04-27T00:06:33.750Z,62.50
2019-04-27T00:07:57.963Z,62.70
2019-04-27T00:08:59.664Z,62.60
2019-04-27T00:10:03.495Z,62.50
2019-04-27T00:11:23.284Z,62.50
2019-04-27T00:12:26.418Z,62.40
2019-04-27T00:13:27.940Z,62.50
2019-04-27T00:14:29.059Z,63.60
2019-04-27T00:15:48.603Z,62.50
2019-04-27T00:17:00.561Z,62.70
2019-04-27T00:18:13.287Z,63.00
2019-04-27T00:19:17.055Z,63.30
2019-04-27T00:20:33.237Z,63.30
2019-04-27T00:21:39.420Z,63.20
2019-04-27T00:22:43.580Z,63.30
2019-04-27T00:23:46.573Z,63.40
2019-04-27T00:24:47.590Z,63.60
2019-04-27T00:25:48.604Z,63.40
2019-04-27T00:26:49.624Z,63.60
2019-04-27T00:27:50.657Z,63.60
2019-04-27T00:28:51.680Z,63.50
2019-04-27T00:29:53.522Z,63.70
2019-04-27T00:30:55.125Z,63.50
2019-04-27T00:31:56.120Z,63.60
2019-04-27T00:32:57.151Z,63.90
2019-04-27T00:33:58.165Z,63.90
2019-04-27T00:34:59.181Z,63.70
2019-04-27T00:36:03.037Z,63.70
2019-04-27T00:37:08.733Z,63.60
2019-04-27T00:38:20.525Z,63.60
2019-04-27T00:39:26.221Z,63.60
2019-04-27T00:40:38.169Z,63.90
2019-04-27T00:41:39.423Z,63.60
2019-04-27T00:42:40.439Z,63.60
2019-04-27T00:43:42.743Z,63.60
2019-04-27T00:44:44.482Z,63.60
2019-04-27T00:45:45.505Z,63.60
2019-04-27T00:46:46.530Z,63.70
2019-04-27T00:47:56.424Z,63.60
2019-04-27T00:48:50.483Z,63.60
2019-04-27T00:49:52.618Z,63.60
2019-04-27T00:50:54.433Z,63.80
2019-04-27T00:51:55.477Z,64.30
2019-04-27T00:52:56.509Z,64.30
2019-04-27T00:53:58.690Z,63.80
2019-04-27T00:55:07.085Z,63.70
2019-04-27T00:56:23.636Z,64.10
2019-04-27T00:57:36.429Z,63.70
2019-04-27T00:58:39.345Z,63.70
2019-04-27T00:59:48.065Z,63.90
2019-04-27T01:00:59.825Z,64.10
2019-04-27T01:02:17.946Z,64.10
2019-04-27T01:03:37.496Z,64.10
2019-04-27T01:04:38.513Z,64.10
2019-04-27T01:05:39.564Z,64.00
2019-04-27T01:06:40.768Z,64.00
2019-04-27T01:07:43.338Z,64.00
2019-04-27T01:08:45.006Z,64.00
2019-04-27T01:09:46.135Z,64.00
2019-04-27T01:10:47.588Z,64.00
2019-04-27T01:11:48.610Z,63.90
2019-04-27T01:12:49.645Z,64.00
2019-04-27T01:13:50.661Z,64.00
2019-04-27T01:14:53.449Z,63.90
2019-04-27T01:15:54.599Z,65.00
2019-04-27T01:16:55.633Z,64.10
2019-04-27T01:18:11.150Z,64.10
2019-04-27T01:18:59.697Z,63.90
2019-04-27T01:20:00.729Z,63.90
2019-04-27T01:21:02.507Z,63.90
2019-04-27T01:22:03.628Z,64.00
2019-04-27T01:23:04.657Z,63.90
2019-04-27T01:24:05.686Z,63.90
2019-04-27T01:25:08.682Z,63.90
2019-04-27T01:26:11.956Z,63.90
2019-04-27T01:27:18.890Z,64.00
2019-04-27T01:28:24.789Z,63.90
2019-04-27T01:29:29.130Z,63.90
2019-04-27T01:30:34.922Z,64.00
2019-04-27T01:31:35.943Z,63.90
2019-04-27T01:32:36.960Z,63.90
2019-04-27T01:33:38.954Z,63.90
2019-04-27T01:34:40.106Z,63.90
2019-04-27T01:35:41.209Z,63.90
2019-04-27T01:36:42.224Z,63.80
2019-04-27T01:37:43.261Z,64.00
2019-04-27T01:38:44.296Z,63.90
2019-04-27T01:39:45.312Z,63.90
2019-04-27T01:40:46.328Z,63.90
2019-04-27T01:41:49.059Z,63.90
2019-04-27T01:42:50.264Z,63.90
2019-04-27T01:43:51.288Z,64.00
2019-04-27T01:44:52.312Z,64.70
2019-04-27T01:45:53.328Z,63.70
2019-04-27T01:46:54.366Z,63.60
2019-04-27T01:47:55.385Z,64.30
2019-04-27T01:48:56.425Z,63.60
2019-04-27T01:49:58.502Z,63.40
2019-04-27T01:50:59.675Z,63.40
2019-04-27T01:52:00.698Z,63.40
2019-04-27T01:53:01.708Z,63.60
2019-04-27T01:54:03.835Z,63.60
2019-04-27T01:55:05.355Z,63.60
2019-04-27T01:56:06.465Z,63.30
2019-04-27T01:57:07.477Z,63.40
2019-04-27T01:58:10.985Z,63.70
2019-04-27T01:59:12.123Z,64.00
2019-04-27T02:00:29.688Z,63.40
2019-04-27T02:01:39.038Z,63.10
2019-04-27T02:02:42.045Z,63.10
2019-04-27T02:04:01.382Z,63.00
2019-04-27T02:05:24.752Z,63.20
2019-04-27T02:06:26.867Z,63.30
2019-04-27T02:07:27.888Z,63.90
2019-04-27T02:08:28.917Z,62.80
2019-04-27T02:09:29.949Z,63.00
2019-04-27T02:10:30.967Z,62.90
2019-04-27T02:11:31.989Z,62.90
2019-04-27T02:12:33.108Z,62.90
2019-04-27T02:13:34.132Z,62.90
2019-04-27T02:14:35.153Z,62.70
2019-04-27T02:15:36.273Z,62.70
2019-04-27T02:16:39.034Z,62.80
2019-04-27T02:17:40.209Z,62.90
2019-04-27T02:18:41.239Z,63.10
2019-04-27T02:19:42.260Z,63.10
2019-04-27T02:20:44.502Z,63.00
2019-04-27T02:21:45.820Z,62.90
2019-04-27T02:22:48.536Z,63.00
2019-04-27T02:23:49.844Z,63.00
2019-04-27T02:24:50.872Z,63.20
2019-04-27T02:25:51.885Z,63.00
2019-04-27T02:26:52.908Z,63.10
2019-04-27T02:27:55.824Z,62.90
2019-04-27T02:28:58.764Z,62.80
2019-04-27T02:30:11.694Z,62.80
2019-04-27T02:31:31.364Z,62.40
2019-04-27T02:32:34.292Z,62.50
2019-04-27T02:33:37.214Z,62.70
2019-04-27T02:34:46.013Z,63.30
2019-04-27T02:35:50.194Z,62.50
2019-04-27T02:36:50.526Z,62.40
2019-04-27T02:37:51.684Z,62.40
2019-04-27T02:38:52.716Z,62.40
2019-04-27T02:39:53.729Z,62.50
2019-04-27T02:40:56.577Z,62.50
2019-04-27T02:41:59.928Z,62.50
2019-04-27T02:43:00.505Z,62.50
2019-04-27T02:44:06.545Z,62.50
2019-04-27T02:45:09.618Z,62.50
2019-04-27T02:46:10.797Z,62.50
2019-04-27T02:47:11.824Z,62.50
2019-04-27T02:48:12.840Z,62.60
2019-04-27T02:49:13.870Z,62.80
2019-04-27T02:50:14.887Z,62.50
2019-04-27T02:51:20.187Z,62.30
2019-04-27T02:52:30.075Z,62.30
2019-04-27T02:53:49.870Z,62.50
2019-04-27T02:54:50.988Z,62.50
2019-04-27T02:55:52.007Z,62.40
2019-04-27T02:56:53.159Z,62.50
2019-04-27T02:57:54.237Z,62.70
2019-04-27T02:58:55.268Z,62.90
2019-04-27T02:59:56.284Z,62.80
2019-04-27T03:00:58.961Z,62.90
2019-04-27T03:02:02.119Z,63.40
2019-04-27T03:03:05.452Z,63.30
2019-04-27T03:04:06.470Z,63.30
2019-04-27T03:05:10.277Z,63.20
2019-04-27T03:06:10.716Z,63.20
2019-04-27T03:07:11.737Z,63.30
2019-04-27T03:08:12.741Z,63.20
2019-04-27T03:09:13.772Z,63.40
2019-04-27T03:10:14.810Z,63.30
2019-04-27T03:11:15.834Z,63.20
2019-04-27T03:12:19.191Z,63.20
2019-04-27T03:13:25.029Z,63.20
2019-04-27T03:14:44.471Z,63.20
2019-04-27T03:15:49.615Z,63.20
2019-04-27T03:17:09.890Z,63.20
2019-04-27T03:18:32.839Z,63.20
2019-04-27T03:19:39.535Z,63.20
2019-04-27T03:20:50.299Z,63.60
2019-04-27T03:21:52.971Z,63.70
2019-04-27T03:22:55.886Z,63.80
2019-04-27T03:23:56.992Z,63.70
2019-04-27T03:25:10.176Z,63.80
2019-04-27T03:26:14.110Z,64.00
2019-04-27T03:27:17.021Z,63.90
2019-04-27T03:28:20.005Z,63.80
2019-04-27T03:29:23.025Z,63.70
2019-04-27T03:30:24.249Z,63.50
2019-04-27T03:31:25.305Z,63.50
2019-04-27T03:32:26.333Z,63.50
2019-04-27T03:33:27.350Z,63.60
2019-04-27T03:34:32.208Z,63.50
2019-04-27T03:35:36.088Z,64.10
2019-04-27T03:36:34.405Z,63.30
2019-04-27T03:37:35.429Z,63.50
2019-04-27T03:38:36.444Z,64.30
2019-04-27T03:39:39.732Z,63.70
2019-04-27T03:40:40.539Z,63.80
2019-04-27T03:41:41.825Z,63.70
2019-04-27T03:42:44.941Z,63.70
2019-04-27T03:43:46.362Z,63.70
2019-04-27T03:44:50.027Z,63.70
2019-04-27T03:45:52.335Z,63.50
2019-04-27T03:46:53.819Z,63.60
2019-04-27T03:47:55.030Z,63.70
2019-04-27T03:48:56.321Z,63.60
2019-04-27T03:49:59.867Z,63.50
2019-04-27T03:51:02.280Z,63.40
2019-04-27T03:52:10.727Z,63.30
2019-04-27T03:53:29.985Z,63.20
2019-04-27T03:54:41.917Z,63.20
2019-04-27T03:55:50.644Z,63.60
2019-04-27T03:56:53.458Z,63.30
2019-04-27T03:57:56.486Z,63.40
2019-04-27T03:59:02.358Z,63.40
2019-04-27T04:00:16.617Z,63.40
2019-04-27T04:01:20.115Z,63.80
2019-04-27T04:02:20.649Z,63.00
2019-04-27T04:03:21.664Z,63.00
2019-04-27T04:04:22.687Z,63.20
2019-04-27T04:05:23.690Z,63.40
2019-04-27T04:06:24.716Z,63.50
2019-04-27T04:07:26.825Z,63.50
2019-04-27T04:08:30.547Z,63.40
2019-04-27T04:09:40.493Z,63.50
2019-04-27T04:10:43.498Z,63.60
2019-04-27T04:11:52.405Z,63.20
2019-04-27T04:12:56.390Z,63.00
2019-04-27T04:14:00.300Z,63.00
2019-04-27T04:15:01.477Z,63.00
2019-04-27T04:16:22.654Z,63.10
2019-04-27T04:17:24.769Z,63.10
2019-04-27T04:18:26.085Z,63.00
2019-04-27T04:19:29.577Z,63.00
2019-04-27T04:20:30.587Z,63.00
2019-04-27T04:21:31.947Z,63.10
2019-04-27T04:22:32.965Z,63.00
2019-04-27T04:23:33.973Z,63.00
2019-04-27T04:24:34.986Z,62.90
2019-04-27T04:25:35.996Z,63.10
2019-04-27T04:26:39.915Z,63.30
2019-04-27T04:27:42.644Z,63.30
2019-04-27T04:28:42.860Z,62.90
2019-04-27T04:29:43.878Z,63.00
2019-04-27T04:30:44.946Z,63.00
2019-04-27T04:31:45.965Z,62.90
2019-04-27T04:32:51.647Z,63.00
2019-04-27T04:33:49.894Z,63.00
2019-04-27T04:34:50.919Z,63.00
2019-04-27T04:35:52.028Z,63.20
2019-04-27T04:36:53.052Z,63.00
2019-04-27T04:37:54.068Z,63.90
2019-04-27T04:38:55.089Z,63.00
2019-04-27T04:39:56.341Z,63.00
2019-04-27T04:40:59.485Z,63.00
2019-04-27T04:42:10.182Z,63.10
2019-04-27T04:43:13.405Z,63.10
2019-04-27T04:44:30.239Z,63.20
2019-04-27T04:45:46.278Z,63.10
2019-04-27T04:46:51.986Z,63.20
2019-04-27T04:47:54.888Z,62.90
2019-04-27T04:48:55.909Z,63.20
2019-04-27T04:50:10.193Z,63.20
2019-04-27T04:51:00.182Z,62.90
2019-04-27T04:52:01.431Z,62.80
2019-04-27T04:53:02.551Z,62.90
2019-04-27T04:54:03.596Z,63.10
2019-04-27T04:55:04.798Z,63.10
2019-04-27T04:56:05.809Z,62.70
2019-04-27T04:57:06.824Z,62.80
2019-04-27T04:58:09.324Z,63.20
2019-04-27T04:59:10.564Z,62.80
2019-04-27T05:00:11.986Z,62.80
2019-04-27T05:01:13.301Z,62.80
2019-04-27T05:02:14.319Z,62.80
2019-04-27T05:03:15.328Z,63.20
2019-04-27T05:04:16.357Z,62.90
2019-04-27T05:05:19.212Z,63.10
2019-04-27T05:06:20.296Z,62.90
2019-04-27T05:07:21.316Z,63.20
2019-04-27T05:08:22.344Z,62.50
2019-04-27T05:09:23.358Z,62.50
2019-04-27T05:10:24.380Z,62.60
2019-04-27T05:11:25.441Z,62.50
2019-04-27T05:12:28.650Z,62.10
2019-04-27T05:13:29.695Z,62.20
2019-04-27T05:14:30.716Z,62.00
2019-04-27T05:15:32.015Z,61.90
2019-04-27T05:16:33.068Z,61.90
2019-04-27T05:17:34.168Z,61.90
2019-04-27T05:18:35.188Z,61.90
2019-04-27T05:19:36.204Z,61.90
2019-04-27T05:20:39.709Z,61.40
2019-04-27T05:21:40.858Z,61.10
2019-04-27T05:22:41.875Z,61.50
2019-04-27T05:23:42.901Z,61.20
2019-04-27T05:24:43.911Z,61.00
2019-04-27T05:25:44.916Z,60.80
2019-04-27T05:26:45.944Z,61.20
2019-04-27T05:27:46.954Z,61.00
2019-04-27T05:28:49.176Z,60.80
2019-04-27T05:29:50.549Z,60.80
2019-04-27T05:30:51.610Z,60.80
2019-04-27T05:31:52.639Z,60.50
2019-04-27T05:32:53.693Z,60.50
2019-04-27T05:33:54.727Z,60.40
2019-04-27T05:34:55.863Z,60.30
2019-04-27T05:35:56.888Z,60.50
2019-04-27T05:36:59.279Z,60.60
2019-04-27T05:38:07.083Z,60.50
2019-04-27T05:39:04.997Z,60.70
2019-04-27T05:40:06.116Z,60.70
2019-04-27T05:41:08.527Z,60.60
2019-04-27T05:42:12.525Z,60.30
2019-04-27T05:43:14.492Z,60.70
2019-04-27T05:44:20.815Z,60.60
2019-04-27T05:46:01.020Z,59.90
2019-04-27T05:47:09.226Z,59.80
2019-04-27T05:48:10.324Z,59.50
2019-04-27T05:49:16.355Z,59.30
2019-04-27T05:50:21.712Z,58.60
2019-04-27T05:51:20.303Z,58.40
2019-04-27T05:52:29.039Z,58.20
2019-04-27T05:53:30.071Z,57.80
2019-04-27T05:54:31.104Z,57.70
2019-04-27T05:55:32.123Z,57.70
2019-04-27T05:56:33.131Z,57.50
2019-04-27T05:57:34.160Z,57.00
2019-04-27T05:58:35.181Z,57.30
2019-04-27T05:59:36.193Z,56.90
2019-04-27T06:00:40.168Z,56.90
2019-04-27T06:01:41.268Z,57.00
2019-04-27T06:02:42.312Z,57.00
2019-04-27T06:03:43.317Z,57.10
2019-04-27T06:04:44.335Z,57.10
2019-04-27T06:05:45.351Z,57.20
2019-04-27T06:06:46.416Z,57.30
2019-04-27T06:07:48.754Z,57.20
2019-04-27T06:08:50.052Z,57.30
2019-04-27T06:09:51.091Z,57.40
2019-04-27T06:10:52.108Z,57.20
2019-04-27T06:11:53.145Z,57.40
2019-04-27T06:12:54.217Z,57.30
2019-04-27T06:13:55.233Z,57.10
2019-04-27T06:14:56.256Z,56.90
2019-04-27T06:15:59.111Z,56.60
2019-04-27T06:17:00.186Z,56.50
2019-04-27T06:18:01.212Z,56.50
2019-04-27T06:19:02.331Z,56.50
2019-04-27T06:20:05.477Z,56.60
2019-04-27T06:21:06.481Z,56.70
2019-04-27T06:22:09.531Z,57.00
2019-04-27T06:23:10.436Z,56.80
2019-04-27T06:24:11.463Z,57.30
2019-04-27T06:25:12.733Z,57.40
2019-04-27T06:26:13.767Z,56.80
2019-04-27T06:27:14.766Z,57.40
2019-04-27T06:28:15.784Z,57.20
2019-04-27T06:29:16.819Z,57.30
2019-04-27T06:30:19.247Z,57.00
2019-04-27T06:31:20.549Z,57.10
2019-04-27T06:32:21.572Z,57.30
2019-04-27T06:33:32.089Z,57.10
2019-04-27T06:34:25.544Z,57.20
2019-04-27T06:35:26.551Z,57.20
2019-04-27T06:36:28.759Z,57.50
2019-04-27T06:37:29.981Z,57.80
2019-04-27T06:38:31.023Z,57.90
2019-04-27T06:39:32.043Z,58.30
2019-04-27T06:40:35.328Z,58.20
2019-04-27T06:41:36.030Z,58.60
2019-04-27T06:42:37.077Z,58.50
2019-04-27T06:43:38.110Z,58.50
2019-04-27T06:44:39.529Z,58.00
2019-04-27T06:45:40.655Z,57.90
2019-04-27T06:46:42.040Z,57.90
2019-04-27T06:47:43.084Z,58.10
2019-04-27T06:48:44.101Z,58.30
2019-04-27T06:49:45.124Z,58.10
2019-04-27T06:50:46.149Z,58.00
2019-04-27T06:51:47.169Z,57.50
2019-04-27T06:52:49.083Z,57.80
2019-04-27T06:53:50.240Z,57.60
2019-04-27T06:54:51.260Z,57.40
2019-04-27T06:55:52.300Z,57.50
2019-04-27T06:56:53.314Z,57.50
2019-04-27T06:57:54.337Z,57.80
2019-04-27T06:58:55.360Z,57.80
2019-04-27T06:59:56.377Z,57.40
2019-04-27T07:00:59.365Z,57.30
2019-04-27T07:02:00.914Z,57.10
2019-04-27T07:03:02.038Z,57.30
2019-04-27T07:04:03.344Z,57.40
2019-04-27T07:05:05.173Z,57.00
2019-04-27T07:06:06.197Z,56.90
2019-04-27T07:07:07.208Z,56.70
2019-04-27T07:08:09.005Z,56.70
2019-04-27T07:09:11.060Z,56.80
2019-04-27T07:10:12.100Z,56.70
2019-04-27T07:11:13.145Z,56.80
2019-04-27T07:12:14.236Z,56.90
2019-04-27T07:13:15.265Z,56.80
2019-04-27T07:14:16.288Z,56.30
2019-04-27T07:15:20.078Z,56.00
2019-04-27T07:16:20.229Z,55.70
2019-04-27T07:17:21.251Z,55.70
2019-04-27T07:18:22.281Z,55.90
2019-04-27T07:19:23.296Z,56.00
2019-04-27T07:20:24.315Z,55.80
2019-04-27T07:21:25.342Z,55.70
2019-04-27T07:22:26.467Z,55.30
2019-04-27T07:23:29.309Z,54.80
2019-04-27T07:24:30.412Z,55.30
2019-04-27T07:25:31.424Z,55.40
2019-04-27T07:26:32.449Z,55.20
2019-04-27T07:27:33.472Z,54.40
2019-04-27T07:28:34.512Z,54.40
2019-04-27T07:29:35.525Z,54.60
2019-04-27T07:30:36.549Z,54.40
2019-04-27T07:31:39.801Z,54.90
2019-04-27T07:32:40.553Z,54.40
2019-04-27T07:33:41.584Z,54.60
2019-04-27T07:34:42.604Z,54.70
2019-04-27T07:35:43.620Z,54.40
2019-04-27T07:36:44.636Z,54.50
2019-04-27T07:37:45.764Z,54.50
2019-04-27T07:38:48.476Z,54.20
2019-04-27T07:39:49.630Z,54.40
2019-04-27T07:40:50.645Z,54.10
2019-04-27T07:41:51.664Z,54.20
2019-04-27T07:42:54.587Z,54.20
2019-04-27T07:44:00.364Z,54.30
2019-04-27T07:45:03.284Z,55.00
2019-04-27T07:46:04.288Z,55.30
2019-04-27T07:47:22.316Z,54.10
2019-04-27T07:48:23.353Z,54.90
2019-04-27T07:49:24.390Z,54.10
2019-04-27T07:50:25.409Z,54.30
2019-04-27T07:51:33.555Z,53.50
2019-04-27T07:52:29.361Z,53.70
2019-04-27T07:53:30.391Z,53.80
2019-04-27T07:54:31.401Z,53.50
2019-04-27T07:55:32.419Z,53.50
2019-04-27T07:56:33.436Z,52.50
2019-04-27T07:57:34.461Z,52.60
2019-04-27T07:58:35.498Z,50.90
2019-04-27T07:59:36.505Z,52.10
2019-04-27T08:00:39.388Z,52.80
2019-04-27T08:01:40.440Z,53.20
2019-04-27T08:02:41.467Z,52.90
2019-04-27T08:03:42.488Z,52.70
2019-04-27T08:04:43.510Z,52.80
2019-04-27T08:05:44.529Z,53.30
2019-04-27T08:06:45.564Z,53.20
2019-04-27T08:07:46.600Z,52.40
2019-04-27T08:08:49.174Z,53.00
2019-04-27T08:09:50.478Z,52.80
2019-04-27T08:10:51.492Z,53.40
2019-04-27T08:11:52.537Z,53.20
2019-04-27T08:12:53.560Z,52.90
2019-04-27T08:13:54.593Z,53.10
2019-04-27T08:14:56.523Z,53.00
2019-04-27T08:15:59.026Z,53.30
2019-04-27T08:17:00.149Z,53.20
2019-04-27T08:18:01.219Z,53.20
2019-04-27T08:19:02.282Z,52.90
2019-04-27T08:20:04.611Z,53.20
2019-04-27T08:21:05.624Z,53.10
2019-04-27T08:22:06.657Z,53.60
2019-04-27T08:23:09.506Z,53.20
2019-04-27T08:24:11.147Z,53.20
2019-04-27T08:25:12.466Z,53.00
2019-04-27T08:26:15.469Z,53.60
2019-04-27T08:27:19.401Z,53.60
2019-04-27T08:28:40.405Z,53.00
2019-04-27T08:29:49.140Z,53.10
2019-04-27T08:30:52.360Z,53.00
2019-04-27T08:31:55.287Z,52.80
2019-04-27T08:32:59.334Z,53.20
2019-04-27T08:34:00.544Z,52.90
2019-04-27T08:35:03.279Z,53.00
2019-04-27T08:36:04.300Z,53.10
2019-04-27T08:37:05.757Z,52.70
2019-04-27T08:38:06.789Z,52.70
2019-04-27T08:39:08.915Z,52.40
2019-04-27T08:40:10.354Z,53.30
2019-04-27T08:41:11.370Z,52.60
2019-04-27T08:42:12.402Z,52.90
2019-04-27T08:43:13.433Z,53.00
2019-04-27T08:44:14.564Z,53.10
2019-04-27T08:45:15.632Z,52.90
2019-04-27T08:46:16.653Z,52.10
2019-04-27T08:47:19.417Z,52.50
2019-04-27T08:48:33.357Z,52.50
2019-04-27T08:49:23.550Z,52.40
2019-04-27T08:50:24.577Z,51.10
2019-04-27T08:51:25.591Z,51.20
2019-04-27T08:52:26.644Z,52.10
2019-04-27T08:53:27.685Z,51.80
2019-04-27T08:54:29.398Z,51.40
2019-04-27T08:55:30.530Z,51.60
2019-04-27T08:56:31.556Z,51.90
2019-04-27T08:57:32.572Z,52.10
2019-04-27T08:58:33.593Z,52.00
2019-04-27T08:59:34.621Z,52.00
2019-04-27T09:00:35.653Z,52.20
2019-04-27T09:01:36.680Z,52.20
2019-04-27T09:02:44.478Z,52.20
2019-04-27T09:03:40.665Z,52.60
2019-04-27T09:04:41.672Z,52.50
2019-04-27T09:05:42.704Z,52.70
2019-04-27T09:06:45.624Z,52.90
2019-04-27T09:07:54.429Z,52.60
2019-04-27T09:09:09.615Z,52.70
2019-04-27T09:10:31.397Z,52.80
2019-04-27T09:11:51.297Z,53.10
2019-04-27T09:12:54.213Z,52.70
2019-04-27T09:13:58.878Z,53.30
2019-04-27T09:15:02.032Z,53.30
2019-04-27T09:16:04.969Z,53.30
2019-04-27T09:17:10.412Z,53.30
2019-04-27T09:18:13.164Z,54.00
2019-04-27T09:19:21.925Z,54.00
2019-04-27T09:20:24.861Z,54.50
2019-04-27T09:21:29.265Z,54.80
2019-04-27T09:22:30.439Z,55.80
2019-04-27T09:23:31.508Z,55.50
2019-04-27T09:24:32.682Z,56.20
2019-04-27T09:25:33.810Z,56.70
2019-04-27T09:26:34.825Z,56.70
2019-04-27T09:27:35.846Z,57.00
2019-04-27T09:28:38.697Z,56.90
2019-04-27T09:29:39.811Z,57.50
2019-04-27T09:30:40.825Z,56.80
2019-04-27T09:31:42.074Z,57.80
2019-04-27T09:32:43.102Z,57.50
2019-04-27T09:33:44.124Z,56.60
2019-04-27T09:34:46.697Z,56.00
2019-04-27T09:35:47.865Z,55.70
2019-04-27T09:36:48.883Z,54.80
2019-04-27T09:37:49.912Z,55.30
2019-04-27T09:38:50.939Z,55.10
2019-04-27T09:39:51.975Z,55.50
2019-04-27T09:40:53.008Z,55.30
2019-04-27T09:41:54.038Z,56.20
2019-04-27T09:42:57.023Z,55.10
2019-04-27T09:43:57.997Z,55.30
2019-04-27T09:44:59.026Z,55.20
2019-04-27T09:46:00.046Z,55.10
2019-04-27T09:47:01.057Z,55.40
2019-04-27T09:48:02.320Z,55.60
2019-04-27T09:49:03.338Z,55.40
2019-04-27T09:50:05.794Z,55.70
2019-04-27T09:51:06.966Z,55.80
2019-04-27T09:52:08.029Z,56.50
2019-04-27T09:53:09.062Z,55.80
2019-04-27T09:54:10.086Z,56.00
2019-04-27T09:55:11.580Z,56.50
2019-04-27T09:56:12.587Z,56.90
2019-04-27T09:57:13.606Z,57.10
2019-04-27T09:58:15.990Z,57.30
2019-04-27T09:59:17.577Z,57.30
2019-04-27T10:00:20.228Z,58.00
2019-04-27T10:01:21.240Z,58.10
2019-04-27T10:02:22.282Z,58.20
2019-04-27T10:03:23.280Z,57.70
2019-04-27T10:04:24.296Z,58.70
2019-04-27T10:05:26.357Z,59.10
2019-04-27T10:06:29.870Z,59.50
2019-04-27T10:07:30.577Z,60.00
2019-04-27T10:08:31.844Z,60.20
2019-04-27T10:09:32.857Z,60.20
2019-04-27T10:10:33.888Z,60.50
2019-04-27T10:11:35.669Z,60.40
2019-04-27T10:12:36.973Z,61.40
2019-04-27T10:13:38.049Z,61.50
2019-04-27T10:14:39.068Z,60.70
2019-04-27T10:15:40.105Z,60.80
2019-04-27T10:16:41.129Z,60.50
2019-04-27T10:17:42.138Z,61.10
2019-04-27T10:18:43.147Z,60.70
2019-04-27T10:19:46.062Z,60.90
2019-04-27T10:20:58.729Z,60.90
2019-04-27T10:21:50.016Z,59.20
2019-04-27T10:22:51.093Z,58.10
2019-04-27T10:23:52.269Z,59.30
2019-04-27T10:24:53.303Z,59.20
2019-04-27T10:25:55.701Z,59.80
2019-04-27T10:26:56.952Z,60.70
2019-04-27T10:27:58.147Z,62.00
2019-04-27T10:28:59.204Z,63.10
2019-04-27T10:30:00.224Z,63.80
2019-04-27T10:31:01.356Z,64.20
2019-04-27T10:32:02.577Z,65.10
2019-04-27T10:33:03.592Z,64.30
2019-04-27T10:34:05.978Z,63.90
2019-04-27T10:35:07.580Z,64.60
2019-04-27T10:36:08.912Z,63.50
2019-04-27T10:37:09.928Z,64.20
2019-04-27T10:38:10.961Z,64.30
2019-04-27T10:39:13.431Z,64.50
2019-04-27T10:40:16.183Z,64.00
2019-04-27T10:41:17.417Z,63.10
2019-04-27T10:42:18.436Z,62.90
2019-04-27T10:43:19.473Z,62.10
2019-04-27T10:44:20.489Z,62.50
2019-04-27T10:45:21.508Z,61.40
2019-04-27T10:46:22.580Z,62.00
2019-04-27T10:47:23.588Z,61.70
2019-04-27T10:48:26.309Z,61.60
2019-04-27T10:49:27.545Z,61.80
2019-04-27T10:50:28.660Z,60.30
2019-04-27T10:51:29.697Z,59.50
2019-04-27T10:52:30.687Z,58.70
2019-04-27T10:53:31.809Z,58.70
2019-04-27T10:54:32.916Z,58.40
2019-04-27T10:55:33.932Z,58.50
2019-04-27T10:56:36.162Z,59.50
2019-04-27T10:57:37.392Z,58.50
2019-04-27T10:58:38.400Z,58.00
2019-04-27T10:59:39.421Z,58.40
2019-04-27T11:00:45.107Z,58.40
2019-04-27T11:01:46.147Z,58.60
2019-04-27T11:02:47.170Z,57.70
2019-04-27T11:03:50.242Z,56.60
2019-04-27T11:04:53.248Z,56.50
2019-04-27T11:05:58.709Z,56.70
2019-04-27T11:07:05.454Z,55.90
2019-04-27T11:08:07.637Z,55.90
2019-04-27T11:09:10.185Z,55.30
2019-04-27T11:10:11.612Z,56.00
2019-04-27T11:11:12.713Z,54.70
2019-04-27T11:12:15.704Z,55.50
2019-04-27T11:13:16.762Z,55.90
2019-04-27T11:14:17.943Z,55.50
2019-04-27T11:15:19.313Z,55.20
2019-04-27T11:16:20.355Z,55.40
2019-04-27T11:17:21.470Z,54.80
2019-04-27T11:18:22.492Z,54.80
2019-04-27T11:19:23.556Z,55.00
2019-04-27T11:20:27.453Z,54.90
2019-04-27T11:21:27.508Z,55.20
2019-04-27T11:22:28.536Z,55.60
2019-04-27T11:23:29.557Z,55.60
2019-04-27T11:24:30.590Z,55.10
2019-04-27T11:25:31.600Z,54.70
2019-04-27T11:26:32.632Z,53.90
2019-04-27T11:27:33.648Z,54.20
2019-04-27T11:28:35.932Z,53.90
2019-04-27T11:29:37.096Z,54.20
2019-04-27T11:30:38.322Z,53.40
2019-04-27T11:31:39.448Z,53.70
2019-04-27T11:32:40.563Z,52.80
2019-04-27T11:33:41.596Z,53.00
2019-04-27T11:34:59.593Z,52.90
2019-04-27T11:36:18.959Z,53.20
2019-04-27T11:37:21.888Z,53.00
2019-04-27T11:38:22.908Z,53.00
2019-04-27T11:39:26.024Z,52.70
2019-04-27T11:40:27.328Z,53.30
2019-04-27T11:41:28.400Z,52.40
2019-04-27T11:42:29.413Z,52.80
2019-04-27T11:43:30.426Z,52.80
2019-04-27T11:44:31.444Z,52.80
2019-04-27T11:45:32.511Z,52.20
2019-04-27T11:46:33.628Z,52.70
2019-04-27T11:47:36.380Z,51.70
2019-04-27T11:48:37.565Z,51.80
2019-04-27T11:49:38.580Z,52.00
2019-04-27T11:50:39.592Z,51.40
2019-04-27T11:51:40.615Z,51.80
2019-04-27T11:52:41.637Z,51.60
2019-04-27T11:53:42.656Z,51.80
2019-04-27T11:54:43.677Z,51.00
2019-04-27T11:55:44.696Z,50.80
2019-04-27T11:56:47.218Z,50.60
2019-04-27T11:57:48.453Z,50.10
2019-04-27T11:58:49.476Z,50.50
2019-04-27T11:59:50.481Z,50.60
2019-04-27T12:00:51.497Z,50.30
2019-04-27T12:01:52.529Z,51.10
2019-04-27T12:02:53.553Z,50.40
2019-04-27T12:03:55.647Z,50.50
2019-04-27T12:04:56.923Z,49.70
2019-04-27T12:06:00.044Z,49.80
2019-04-27T12:07:00.861Z,49.80
2019-04-27T12:08:01.886Z,50.30
2019-04-27T12:09:04.515Z,50.30
2019-04-27T12:10:06.437Z,49.60
2019-04-27T12:11:07.454Z,49.90
2019-04-27T12:12:13.548Z,50.20
2019-04-27T12:13:11.520Z,50.20
2019-04-27T12:14:12.608Z,49.90
2019-04-27T12:15:16.115Z,50.20
2019-04-27T12:16:17.698Z,50.20
2019-04-27T12:17:18.920Z,50.20
2019-04-27T12:18:20.144Z,50.10
2019-04-27T12:19:21.161Z,50.20
2019-04-27T12:20:22.172Z,50.40
2019-04-27T12:21:23.190Z,50.20
2019-04-27T12:22:24.212Z,50.60
2019-04-27T12:23:33.802Z,50.70
2019-04-27T12:24:28.159Z,50.40
2019-04-27T12:25:29.198Z,50.60
2019-04-27T12:26:32.120Z,50.40
2019-04-27T12:27:45.803Z,50.40
2019-04-27T12:28:48.946Z,50.10
2019-04-27T12:29:57.617Z,50.30
2019-04-27T12:31:03.072Z,50.20
2019-04-27T12:32:05.620Z,49.50
2019-04-27T12:33:06.834Z,49.80
2019-04-27T12:34:08.545Z,49.50
2019-04-27T12:35:09.760Z,49.50
2019-04-27T12:36:10.782Z,49.40
2019-04-27T12:37:11.804Z,49.40
2019-04-27T12:38:12.817Z,49.40
2019-04-27T12:39:15.593Z,49.40
2019-04-27T12:40:17.364Z,49.30
2019-04-27T12:41:18.376Z,49.30
2019-04-27T12:42:21.052Z,49.20
2019-04-27T12:43:22.528Z,49.40
2019-04-27T12:44:23.648Z,49.40
2019-04-27T12:45:26.560Z,49.60
2019-04-27T12:46:27.784Z,49.20
2019-04-27T12:47:28.913Z,49.00
2019-04-27T12:48:29.939Z,48.70
2019-04-27T12:49:30.949Z,48.80
2019-04-27T12:50:31.970Z,47.40
2019-04-27T12:51:32.979Z,47.70
2019-04-27T12:52:35.934Z,47.30
2019-04-27T12:53:50.078Z,47.80
2019-04-27T12:54:43.794Z,47.50
2019-04-27T12:55:49.258Z,47.10
2019-04-27T12:56:55.885Z,47.70
2019-04-27T12:58:10.943Z,47.70
2019-04-27T12:59:30.257Z,47.90
2019-04-27T13:00:36.005Z,48.80
2019-04-27T13:01:37.476Z,49.40
2019-04-27T13:02:38.610Z,49.80
2019-04-27T13:03:39.733Z,49.60
2019-04-27T13:04:40.752Z,49.80
2019-04-27T13:05:41.777Z,50.50
2019-04-27T13:06:42.796Z,49.70
2019-04-27T13:07:43.840Z,49.70
2019-04-27T13:08:45.832Z,50.30
2019-04-27T13:09:46.977Z,50.30
2019-04-27T13:10:48.062Z,49.40
2019-04-27T13:11:49.117Z,50.50
2019-04-27T13:12:50.141Z,49.30
2019-04-27T13:13:51.168Z,49.70
2019-04-27T13:14:52.585Z,49.20
2019-04-27T13:15:53.613Z,49.20
2019-04-27T13:16:56.103Z,49.10
2019-04-27T13:17:57.490Z,49.20
2019-04-27T13:18:58.545Z,49.10
2019-04-27T13:19:59.569Z,49.10
2019-04-27T13:21:00.585Z,49.60
2019-04-27T13:22:01.609Z,49.20
2019-04-27T13:23:02.729Z,49.10
2019-04-27T13:24:06.288Z,49.10
2019-04-27T13:25:07.180Z,48.80
2019-04-27T13:26:08.202Z,48.40
2019-04-27T13:27:09.263Z,48.10
2019-04-27T13:28:10.584Z,47.70